La Villita, NM

8:15 PM MDT on April 24, 2015 (GMT -0600)
Angel Fire | | Change Station
CLOSE
Current Station
Airport
Location: Angel Fire,
Elevation: 8379 ft
Nearby Weather Stations

Elev 8379 ft 36.42 °N, 105.29 °W | Updated 20 minutes ago

Partly Cloudy
Partly Cloudy
37 °F
Feels Like 32 °F
N
6
Wind Variable Wind from WNW
Gusts 23 mph

Today
High -- | Low -- °F
--% Chance of Precip.
Yesterday
High -- | Low -- °F
Precip. -- in
6:19 AM 7:45 PM
Waxing Crescent, 41% visible
Pressure 29.91 in
Visibility 10.0 miles
Clouds Mostly Cloudy 3000 ft
Mostly Cloudy 3600 ft
Overcast 4200 ft
Windchill 32 °F
Dew Point 26 °F
Humidity 66%
Rainfall 0.00 in
Snow Depth Not available.
UV 0 out of 12
Pollen 9.00 out of 12
Air Quality Not available.
Flu Activity Local Activity
METAR KAXX 250155Z AUTO 30005G20KT 10SM BKN030 BKN036 OVC042 03/M03 A2991 RMK AO2 T00271031

More Conditions Fewer Conditions

Pressure 29.91 in
Visibility 10.0 miles
Clouds Mostly Cloudy 3000 ft
Mostly Cloudy 3600 ft
Overcast 4200 ft
Windchill 32 °F
Dew Point 26 °F
Humidity 66%
Rainfall 0.00 in
Snow Depth Not available.
UV 0 out of 12
Pollen 9.00 out of 12
Air Quality Not available.
Flu Activity Local Activity
METAR KAXX 250155Z AUTO 30005G20KT 10SM BKN030 BKN036 OVC042 03/M03 A2991 RMK AO2 T00271031

More Conditions Fewer Conditions

Nowcast | as of 7:27 PM MDT on April 24, 2015

Through 9 PM...shower and thunderstorm coverage will continue to diminish over central New Mexico. Showers and thunderstorms will drift to the east at about 30 mph...and remaining activity will be capable of brief moderate rain with amounts generally less than one tenth of an inch. A few cloud to ground lightning strikes and gusty winds to 40 mph are also possible with the stronger storms. Favored areas will include Canones...El Rito...Chili...Rio Rancho... Bernalillo...Cowles...El Porvenir...Carrizozo...White Oaks...Bonito Lake...Lincoln...Arabela...and other surrounding rural locations.

×

10-Day Weather Forecast

Almanac

Astronomy

Apr. 24, 2015 Rise Set
Actual Time
Civil Twilight
Nautical Twilight
Astronomical Twilight
Moon
Length of Visible Light
Length of Day
Tomorrow will be .
, % of the Moon is Illuminated

Today's Extremes

State Highs State Lows

Community

WunderPhotos

Upload Photos

1,816,570 photos uploaded!

WunderBlogs® & News

Nearby

Air Quality

  Air Quality AQ Index Pollutant
Not available.

Snow Depth

Station Depth Elevation

Earthquake Activity

City Distance Mag. Time & Date
Minimum magnitude displayed is 2.5.

Coastal Water Temperatures

Place Temperature

Stations

Nearby Weather Stations

Station Location Temp. Windchill Dew Point Humidity Wind Precip. Elev Updated Type